Time;durP1;ratioP1;P1;durP2;ratioP2;P2;SDS_P1;SDS_P2;PMS_P1;PMS_P2;Temp;Humidity;BMP_temperature;BMP_pressure;BME280_temperature;BME280_humidity;BME280_pressure;Samples;Min_cycle;Max_cycle;Signal;HPM_P1;HPM_P2
2023/06/15 00:25:30;;;;;;;9.80;6.30;;;;;;;14.74;72.33;99052.39;221401;194;666722;-65
2023/06/15 00:30:45;;;;;;;10.60;7.00;;;;;;;14.76;72.28;99053.98;223509;205;137042;-65
2023/06/15 00:35:49;;;;;;;13.20;7.40;;;;;;;14.76;72.37;99050.97;223499;205;143364;-64
2023/06/15 02:45:31;;;;;;;12.20;7.30;;;;;;;14.49;73.33;99053.11;219861;223;664921;-66
2023/06/15 02:50:40;;;;;;;12.90;7.50;;;;;;;14.47;73.39;99045.55;224081;207;137297;-64
2023/06/15 02:55:57;;;;;;;12.70;7.60;;;;;;;14.50;73.20;99043.71;223677;181;143687;-67
2023/06/15 03:01:01;;;;;;;;;;;;;;;14.52;73.12;99047.20;223725;187;141322;-65
2023/06/15 03:06:14;;;;;;;17.70;7.70;;;;;;;14.51;73.14;99050.65;223870;208;127789;-64
2023/06/15 03:11:18;;;;;;;9.10;7.60;;;;;;;14.48;73.35;99050.48;223760;182;143477;-65
2023/06/15 03:16:24;;;;;;;11.10;8.00;;;;;;;14.46;73.51;99048.86;223701;181;139300;-65
2023/06/15 03:21:29;;;;;;;10.70;7.90;;;;;;;14.47;73.69;99057.53;223621;213;137077;-64
2023/06/15 03:26:36;;;;;;;11.00;8.10;;;;;;;14.51;73.72;99067.97;223716;204;143402;-65
2023/06/15 03:31:42;;;;;;;9.50;8.00;;;;;;;14.57;73.73;99071.98;223689;214;139793;-65
2023/06/15 03:36:47;;;;;;;12.60;8.90;;;;;;;14.62;73.64;99076.31;223731;214;139804;-66
2023/06/15 03:41:50;;;;;;;13.10;9.60;;;;;;;14.62;73.38;99073.17;223536;209;145157;-66
2023/06/15 03:46:54;;;;;;;16.40;10.20;;;;;;;14.61;73.41;99076.27;223769;214;138704;-65
2023/06/15 03:51:58;;;;;;;13.40;10.30;;;;;;;14.58;73.47;99079.33;223810;187;139509;-65
2023/06/15 03:57:02;;;;;;;16.60;10.10;;;;;;;14.59;73.63;99077.70;223541;204;146566;-63
2023/06/15 04:02:05;;;;;;;19.70;13.60;;;;;;;14.61;73.86;99078.59;223550;183;138938;-63
2023/06/15 04:07:10;;;;;;;19.50;13.60;;;;;;;14.69;73.82;99075.61;223578;182;137747;-63
2023/06/15 04:12:15;;;;;;;18.50;13.30;;;;;;;14.76;73.72;99079.20;223536;193;145586;-65
2023/06/15 04:17:18;;;;;;;24.80;15.30;;;;;;;14.78;73.70;99081.86;223652;192;139658;-66
2023/06/15 04:22:22;;;;;;;23.70;14.90;;;;;;;14.85;73.61;99079.01;223534;204;136724;-65
2023/06/15 04:27:27;;;;;;;21.20;14.10;;;;;;;14.87;73.43;99083.81;223581;215;146131;-65
2023/06/15 04:32:32;;;;;;;22.90;14.60;;;;;;;14.86;73.75;99083.79;223528;192;138997;-65
2023/06/15 04:37:39;;;;;;;20.90;13.10;;;;;;;14.86;73.93;99078.98;223650;182;137602;-64
2023/06/15 04:42:46;;;;;;;24.10;13.70;;;;;;;14.92;73.66;99072.39;223578;192;145589;-65
2023/06/15 04:53:30;;;;;;;24.20;15.20;;;;;;;15.04;73.49;99086.27;219628;222;666387;-65
2023/06/15 04:58:33;;;;;;;25.20;17.90;;;;;;;15.06;73.42;99093.61;223462;218;137227;-66
2023/06/15 05:03:37;;;;;;;25.10;16.50;;;;;;;15.10;73.22;99096.48;223445;195;143467;-67
2023/06/15 05:08:41;;;;;;;21.60;15.20;;;;;;;15.13;73.13;99103.94;223519;217;138603;-67
2023/06/15 05:13:44;;;;;;;23.80;15.90;;;;;;;15.18;73.07;99104.33;223376;183;138476;-67
2023/06/15 05:18:48;;;;;;;23.20;15.80;;;;;;;15.28;73.02;99105.45;223442;217;144214;-64
2023/06/15 05:23:52;;;;;;;26.80;18.10;;;;;;;15.35;72.74;99109.85;223447;210;138192;-64
2023/06/15 05:28:56;;;;;;;27.30;17.70;;;;;;;15.43;72.61;99106.77;223494;217;136483;-64
2023/06/15 05:34:01;;;;;;;27.40;18.30;;;;;;;15.46;72.45;99103.48;223452;217;146378;-66
2023/06/15 05:39:07;;;;;;;25.10;17.60;;;;;;;15.45;72.42;99106.39;223386;217;138320;-64
2023/06/15 05:44:10;;;;;;;19.70;13.90;;;;;;;15.45;72.51;99108.02;223416;217;136984;-66
2023/06/15 05:49:15;;;;;;;38.40;26.70;;;;;;;15.58;72.83;99104.21;223472;184;145888;-64
2023/06/15 05:54:18;;;;;;;28.60;19.00;;;;;;;15.64;72.08;99112.16;223481;217;138587;-65
2023/06/15 05:59:22;;;;;;;39.20;30.40;;;;;;;15.68;72.30;99112.39;223410;214;137622;-63
2023/06/15 06:04:39;;;;;;;25.00;19.40;;;;;;;15.74;72.14;99112.77;223453;217;146587;-64
2023/06/15 06:09:42;;;;;;;29.20;20.60;;;;;;;15.98;72.12;99116.75;223420;206;138458;-67
2023/06/15 06:14:46;;;;;;;25.70;19.80;;;;;;;16.20;71.47;99117.94;223427;184;136517;-72
2023/06/15 06:19:51;;;;;;;43.50;32.50;;;;;;;16.25;70.48;99118.74;223456;217;145298;-72
2023/06/15 06:24:55;;;;;;;19.90;15.60;;;;;;;16.20;70.27;99116.85;223463;217;139861;-69
2023/06/15 06:29:59;;;;;;;51.80;41.40;;;;;;;16.25;70.18;99115.71;223436;184;137206;-69
2023/06/15 06:35:03;;;;;;;23.40;17.20;;;;;;;16.25;70.07;99124.01;223501;217;145405;-68
2023/06/15 06:40:07;;;;;;;27.30;17.80;;;;;;;16.30;69.72;99122.43;223549;184;138098;-70
2023/06/15 06:45:10;;;;;;;24.30;18.40;;;;;;;16.24;69.58;99128.54;223509;211;136843;-64
2023/06/15 06:50:27;;;;;;;23.50;17.60;;;;;;;16.29;69.66;99131.15;223568;183;145667;-64
2023/06/15 06:55:30;;;;;;;21.30;15.70;;;;;;;16.30;69.70;99133.17;223468;217;138921;-67
2023/06/15 07:00:33;;;;;;;19.60;16.00;;;;;;;16.42;69.41;99127.52;223500;183;138527;-65
2023/06/15 07:05:37;;;;;;;31.90;25.10;;;;;;;16.57;68.99;99120.50;223502;193;145138;-65
2023/06/15 07:10:40;;;;;;;21.70;16.60;;;;;;;16.58;68.49;99124.95;223389;216;140386;-67
2023/06/15 07:15:43;;;;;;;23.00;18.00;;;;;;;16.74;68.72;99124.64;223532;194;136988;-66
2023/06/15 07:21:00;;;;;;;21.30;17.10;;;;;;;16.86;68.39;99126.33;223456;183;145882;-66
2023/06/15 07:26:04;;;;;;;22.60;16.70;;;;;;;16.84;68.11;99122.77;223461;216;140617;-66
2023/06/15 07:31:07;;;;;;;24.00;16.40;;;;;;;16.88;68.26;99117.02;223479;216;137535;-68
2023/06/15 07:36:10;;;;;;;19.60;15.00;;;;;;;16.96;67.99;99113.05;223499;205;145751;-64
2023/06/15 07:41:13;;;;;;;24.90;15.60;;;;;;;17.00;67.26;99105.02;223514;217;138579;-64
2023/06/15 07:46:17;;;;;;;24.30;14.70;;;;;;;17.06;67.02;99105.17;223455;182;138230;-70
2023/06/15 07:51:20;;;;;;;16.50;11.70;;;;;;;17.21;66.62;99106.92;223463;216;145298;-66
2023/06/15 07:56:48;;;;;;;60.70;47.30;;;;;;;17.32;65.28;99110.79;223450;217;138197;-65
2023/06/15 08:01:51;;;;;;;14.80;11.80;;;;;;;17.36;64.60;99104.89;223545;183;138112;-65
2023/06/15 08:06:54;;;;;;;14.90;11.90;;;;;;;17.43;64.72;99102.27;223434;217;145459;-66
2023/06/15 08:11:57;;;;;;;39.80;28.90;;;;;;;17.61;64.49;99099.03;223507;217;138525;-66
2023/06/15 08:17:00;;;;;;;11.50;9.00;;;;;;;17.61;62.91;99103.36;222954;183;138124;-64
2023/06/15 08:22:04;;;;;;;11.50;9.40;;;;;;;17.57;62.73;99106.10;223556;183;145258;-65
2023/06/15 08:27:10;;;;;;;14.30;9.50;;;;;;;17.67;63.27;99105.88;223423;184;139421;-63
2023/06/15 08:32:13;;;;;;;22.30;16.40;;;;;;;17.91;64.05;99106.27;223513;193;136889;-68
2023/06/15 08:37:17;;;;;;;16.10;11.10;;;;;;;18.19;63.63;99111.92;223473;184;146001;-62
2023/06/15 08:42:23;;;;;;;159.80;124.10;;;;;;;18.34;63.50;99110.00;223438;217;138468;-65
2023/06/15 08:47:27;;;;;;;16.30;12.30;;;;;;;18.51;62.53;99109.27;223458;217;138041;-65
2023/06/15 08:52:34;;;;;;;14.90;9.60;;;;;;;18.43;60.37;99113.15;223416;184;145339;-65
2023/06/15 08:57:38;;;;;;;13.70;10.10;;;;;;;18.21;59.76;99116.21;223416;184;138567;-64
2023/06/15 09:02:47;;;;;;;15.90;11.30;;;;;;;18.09;60.33;99116.41;223465;217;137070;-64
2023/06/15 09:07:51;;;;;;;13.30;10.50;;;;;;;18.15;60.64;99118.54;223454;193;145678;-66
2023/06/15 09:12:56;;;;;;;17.80;11.10;;;;;;;18.42;60.95;99112.98;223452;207;138561;-66
2023/06/15 09:18:01;;;;;;;;;;;;;;;18.75;60.26;99110.09;223392;217;137633;-67
2023/06/15 09:23:10;;;;;;;11.20;9.40;;;;;;;18.94;59.31;99109.77;222482;217;145731;-67
2023/06/15 09:28:13;;;;;;;10.50;9.00;;;;;;;19.10;58.26;99108.91;223424;217;140187;-64
2023/06/15 09:33:18;;;;;;;11.20;8.60;;;;;;;19.12;57.45;99108.30;223462;217;137135;-64
2023/06/15 09:38:22;;;;;;;10.10;7.70;;;;;;;19.10;56.39;99108.37;223456;184;146507;-66
2023/06/15 09:43:33;;;;;;;9.00;7.50;;;;;;;19.11;56.19;99103.11;223379;193;138723;-67
2023/06/15 09:48:38;;;;;;;10.30;8.10;;;;;;;19.14;56.84;99103.27;223458;217;137456;-62
2023/06/15 09:53:43;;;;;;;12.90;9.50;;;;;;;19.15;57.09;99101.25;223405;217;145509;-63
2023/06/15 09:58:48;;;;;;;11.50;9.10;;;;;;;19.23;57.61;99100.52;223396;183;138303;-63
2023/06/15 10:03:52;;;;;;;85.60;66.50;;;;;;;19.32;58.00;99098.91;223476;196;137430;-63
2023/06/15 10:09:00;;;;;;;29.50;21.00;;;;;;;19.50;58.02;99099.46;223506;206;147465;-69
2023/06/15 10:14:28;;;;;;;13.50;11.30;;;;;;;19.95;58.75;99092.33;223112;184;138297;-69
2023/06/15 10:19:42;;;;;;;9.90;8.80;;;;;;;20.48;57.80;99095.41;223516;183;137445;-65
2023/06/15 10:24:46;;;;;;;8.20;6.80;;;;;;;20.81;55.44;99096.59;223469;183;145015;-68
2023/06/15 10:30:16;;;;;;;10.10;7.50;;;;;;;20.95;53.31;99097.39;223618;184;138933;-66
2023/06/15 10:35:33;;;;;;;8.70;7.60;;;;;;;20.94;52.34;99096.67;223505;184;136921;-66
2023/06/15 10:40:45;;;;;;;9.40;8.40;;;;;;;20.84;53.03;99092.52;223562;183;145468;-65
2023/06/15 10:45:48;;;;;;;33.70;28.50;;;;;;;20.88;54.02;99086.14;223543;184;138571;-68
2023/06/15 10:51:02;;;;;;;10.20;7.70;;;;;;;20.76;51.77;99082.42;223580;183;137802;-65
2023/06/15 10:56:13;;;;;;;14.00;11.70;;;;;;;20.70;52.02;99076.73;223517;183;146366;-67
2023/06/15 11:01:21;;;;;;;12.90;11.50;;;;;;;20.81;53.28;99073.53;223582;184;139104;-68
2023/06/15 11:06:32;;;;;;;9.00;8.10;;;;;;;21.13;53.11;99066.36;223559;184;137256;-67
2023/06/15 11:11:37;;;;;;;18.10;15.40;;;;;;;21.48;52.30;99058.69;223596;184;145274;-63
2023/06/15 11:16:48;;;;;;;9.40;8.20;;;;;;;21.74;51.05;99050.83;223355;183;139756;-65
2023/06/15 11:21:59;;;;;;;11.20;8.60;;;;;;;22.00;50.48;99047.01;223458;183;136558;-63
2023/06/15 11:27:10;;;;;;;33.60;27.30;;;;;;;22.20;49.91;99043.98;223566;183;148052;-65
2023/06/15 11:32:13;;;;;;;283.00;216.10;;;;;;;22.44;49.35;99042.36;223523;183;138423;-64
2023/06/15 11:37:16;;;;;;;10.60;9.50;;;;;;;22.79;48.56;99040.34;223635;184;140687;-64
2023/06/15 11:42:20;;;;;;;10.80;8.00;;;;;;;23.12;46.69;99036.06;223594;184;145160;-63
2023/06/15 11:50:44;;;;;;;8.10;7.30;;;;;;;23.56;44.79;99031.64;221526;193;665578;-67
2023/06/15 11:55:48;;;;;;;8.40;7.60;;;;;;;23.76;43.65;99021.36;223718;182;136194;-63
2023/06/15 12:00:51;;;;;;;10.80;8.20;;;;;;;24.00;44.30;99019.63;223773;182;143374;-64
2023/06/15 12:05:58;;;;;;;11.40;8.40;;;;;;;24.18;44.39;99016.29;223772;182;138857;-66
2023/06/15 12:11:04;;;;;;;11.80;8.30;;;;;;;24.30;43.89;99005.77;223797;182;136078;-62
2023/06/15 12:16:08;;;;;;;12.50;8.90;;;;;;;24.42;43.71;98999.98;223846;182;143474;-65
2023/06/15 12:21:17;;;;;;;13.60;8.30;;;;;;;24.31;42.88;98993.87;223796;182;139493;-65
2023/06/15 12:26:30;;;;;;;10.60;8.40;;;;;;;24.03;43.08;98989.96;223828;182;136487;-66
2023/06/15 12:31:34;;;;;;;10.80;9.30;;;;;;;24.14;43.02;98982.05;223870;182;143647;-65
2023/06/15 12:36:38;;;;;;;9.30;8.00;;;;;;;23.93;42.98;98981.88;223774;182;138416;-61
2023/06/15 12:41:42;;;;;;;9.90;8.60;;;;;;;23.64;43.91;98980.44;223629;182;136301;-63
2023/06/15 12:52:22;;;;;;;14.30;8.70;;;;;;;23.69;45.40;98970.33;221395;193;666035;-65
2023/06/15 12:57:25;;;;;;;12.40;9.00;;;;;;;23.69;45.00;98961.71;223361;186;137060;-64
2023/06/15 13:02:29;;;;;;;11.70;9.30;;;;;;;23.84;44.41;98961.55;223639;184;143861;-64
2023/06/15 13:07:33;;;;;;;10.10;8.40;;;;;;;23.66;44.09;98959.88;223547;184;138272;-63
2023/06/15 13:12:36;;;;;;;10.00;9.00;;;;;;;23.68;44.30;98953.66;223649;183;135969;-63
2023/06/15 13:17:49;;;;;;;12.10;8.50;;;;;;;24.20;43.45;98943.35;223716;182;260295;-64
2023/06/15 13:22:53;;;;;;;12.00;9.20;;;;;;;24.68;43.07;98939.91;223781;183;138504;-61
2023/06/15 13:28:07;;;;;;;12.00;8.90;;;;;;;25.05;41.13;98937.14;223760;183;136855;-64
2023/06/15 13:33:11;;;;;;;160.60;127.20;;;;;;;25.38;40.86;98929.04;223633;183;143572;-64
2023/06/15 13:38:14;;;;;;;42.70;33.20;;;;;;;25.38;40.79;98930.88;223771;181;139313;-66
2023/06/15 13:43:17;;;;;;;48.10;37.30;;;;;;;25.00;40.76;98932.48;223826;181;137266;-65
2023/06/15 13:48:27;;;;;;;43.10;34.40;;;;;;;25.07;40.17;98927.62;223794;181;145210;-64
2023/06/15 13:53:31;;;;;;;19.30;16.60;;;;;;;25.53;40.16;98921.52;223676;181;138469;-68
2023/06/15 13:58:34;;;;;;;12.90;11.30;;;;;;;25.90;39.42;98915.98;223695;182;137299;-65
2023/06/15 14:03:41;;;;;;;13.00;10.00;;;;;;;26.22;37.80;98905.17;223596;181;146383;-65
2023/06/15 14:08:46;;;;;;;11.70;9.70;;;;;;;26.33;38.04;98899.36;223653;181;138893;-64
2023/06/15 14:13:50;;;;;;;12.90;9.50;;;;;;;26.13;38.22;98904.31;223662;181;136749;-65
2023/06/15 14:18:55;;;;;;;17.60;14.80;;;;;;;26.07;38.06;98900.39;223706;181;145172;-68
2023/06/15 14:23:59;;;;;;;16.70;11.60;;;;;;;26.05;37.66;98902.10;223755;181;138363;-65
2023/06/15 14:29:15;;;;;;;12.70;9.30;;;;;;;25.97;37.91;98892.60;223635;182;137913;-66
2023/06/15 14:34:20;;;;;;;13.60;9.70;;;;;;;25.64;38.98;98890.52;223680;181;145077;-64
2023/06/15 14:39:24;;;;;;;10.60;9.10;;;;;;;25.41;38.40;98886.11;223691;182;138448;-63
2023/06/15 14:44:28;;;;;;;14.60;11.40;;;;;;;25.24;38.05;98883.55;223724;181;137275;-66
2023/06/15 14:50:43;;;;;;;11.70;8.60;;;;;;;24.87;39.20;98875.46;221451;193;666400;-66
2023/06/15 14:55:47;;;;;;;9.70;8.10;;;;;;;24.39;39.85;98876.31;223743;183;136904;-66
2023/06/15 15:00:58;;;;;;;58.10;51.70;;;;;;;24.05;40.52;98875.48;223715;183;143715;-66
2023/06/15 15:06:01;;;;;;;13.70;11.60;;;;;;;23.96;41.07;98877.48;223553;183;139651;-67
2023/06/15 15:11:08;;;;;;;13.00;10.60;;;;;;;23.87;41.01;98878.00;223774;182;136671;-67
2023/06/15 15:16:11;;;;;;;9.90;8.80;;;;;;;23.70;41.29;98875.14;223763;182;144159;-64
2023/06/15 15:21:18;;;;;;;11.20;9.10;;;;;;;23.39;41.61;98870.33;223756;183;138350;-64
2023/06/15 15:26:21;;;;;;;11.00;8.90;;;;;;;23.18;42.11;98867.80;223749;183;136296;-65
2023/06/15 15:31:25;;;;;;;137.50;99.00;;;;;;;23.20;42.65;98867.00;223654;182;144390;-66
2023/06/15 15:36:28;;;;;;;69.60;55.60;;;;;;;23.27;42.50;98863.56;223591;182;140202;-66
2023/06/15 15:41:31;;;;;;;18.50;12.60;;;;;;;23.26;42.97;98862.29;223971;180;139607;-65
2023/06/15 15:46:34;;;;;;;14.40;10.60;;;;;;;23.19;43.52;98856.17;223884;180;145139;-66
2023/06/15 15:51:38;;;;;;;17.10;9.00;;;;;;;23.12;44.01;98860.10;223677;181;138417;-67
2023/06/15 15:56:41;;;;;;;14.30;10.10;;;;;;;23.01;44.20;98852.54;223748;181;136498;-65
2023/06/15 16:01:54;;;;;;;14.50;10.10;;;;;;;22.91;44.57;98850.93;223751;181;145609;-67
2023/06/15 16:07:00;;;;;;;15.90;8.20;;;;;;;22.86;44.92;98852.83;223660;181;138453;-64
2023/06/15 16:12:08;;;;;;;28.50;21.90;;;;;;;22.77;45.44;98859.29;223648;181;136979;-65
2023/06/15 16:17:12;;;;;;;47.30;38.50;;;;;;;22.69;45.63;98860.79;223648;181;145563;-65
2023/06/15 16:22:15;;;;;;;33.90;24.50;;;;;;;22.60;45.93;98859.41;223606;181;139596;-64
2023/06/15 16:27:18;;;;;;;12.10;9.90;;;;;;;22.63;46.05;98858.21;223792;181;138619;-67
2023/06/15 16:32:21;;;;;;;10.30;9.20;;;;;;;22.61;46.08;98861.43;223713;181;145390;-66
2023/06/15 16:37:25;;;;;;;11.90;8.90;;;;;;;22.58;46.05;98861.10;223772;181;138858;-64
2023/06/15 16:42:31;;;;;;;11.30;9.60;;;;;;;22.55;46.03;98865.11;223653;181;136950;-61
2023/06/15 16:47:34;;;;;;;9.90;8.70;;;;;;;22.45;46.20;98866.00;223690;181;146198;-62
2023/06/15 16:52:41;;;;;;;9.50;8.50;;;;;;;22.38;46.41;98869.91;223674;181;138927;-63
2023/06/15 16:57:44;;;;;;;14.00;10.70;;;;;;;22.41;46.78;98875.52;223663;181;139355;-63
2023/06/15 17:02:48;;;;;;;58.40;40.90;;;;;;;22.39;46.75;98878.88;223629;181;146045;-66
2023/06/15 17:07:51;;;;;;;12.70;10.50;;;;;;;22.31;47.05;98882.39;223680;181;138361;-66
2023/06/15 17:12:55;;;;;;;11.60;8.60;;;;;;;22.28;47.46;98879.90;223630;181;137568;-64
2023/06/15 17:17:59;;;;;;;10.80;8.10;;;;;;;22.24;47.85;98884.56;223666;181;145893;-65
2023/06/15 17:23:03;;;;;;;79.60;62.10;;;;;;;22.23;48.11;98886.08;223754;181;140077;-63
2023/06/15 17:28:06;;;;;;;14.70;11.50;;;;;;;22.24;48.31;98887.77;223708;181;136635;-67
2023/06/15 17:33:09;;;;;;;99.80;82.60;;;;;;;22.22;48.30;98887.08;223647;182;147460;-67
2023/06/15 17:38:13;;;;;;;41.10;30.80;;;;;;;22.22;48.56;98886.92;223655;181;139003;-66
2023/06/15 17:43:16;;;;;;;28.40;24.70;;;;;;;22.17;48.85;98889.85;223635;181;137334;-70
2023/06/15 17:48:22;;;;;;;110.40;96.30;;;;;;;22.14;49.13;98897.05;223623;181;145385;-68
2023/06/15 17:53:27;;;;;;;20.50;15.10;;;;;;;22.08;49.42;98902.34;223609;181;138983;-65
2023/06/15 17:58:30;;;;;;;11.70;8.70;;;;;;;21.98;49.64;98903.27;223781;181;137790;-64
2023/06/15 18:03:34;;;;;;;11.10;9.90;;;;;;;21.90;49.81;98909.20;223736;181;145253;-64
2023/06/15 18:08:38;;;;;;;19.00;12.40;;;;;;;21.85;50.22;98910.67;223725;181;138911;-66
2023/06/15 18:13:42;;;;;;;208.50;174.60;;;;;;;21.82;50.35;98914.09;223757;181;136586;-63
2023/06/15 18:18:46;;;;;;;61.30;54.80;;;;;;;21.76;50.87;98913.02;223763;182;146026;-68
2023/06/15 18:23:49;;;;;;;24.70;18.40;;;;;;;21.66;51.26;98912.98;223676;181;139146;-67
2023/06/15 18:28:54;;;;;;;223.10;168.30;;;;;;;21.56;51.92;98920.25;223821;181;136507;-71
2023/06/15 18:34:02;;;;;;;39.10;28.30;;;;;;;21.42;52.33;98923.01;223777;181;145968;-71
2023/06/15 18:39:10;;;;;;;58.50;48.70;;;;;;;21.28;53.03;98925.26;223707;181;139465;-66
2023/06/15 18:44:14;;;;;;;32.70;18.90;;;;;;;21.19;53.30;98923.52;223794;181;136595;-69
2023/06/15 18:50:44;;;;;;;64.70;37.80;;;;;;;21.14;53.84;98925.16;220491;193;664965;-67
2023/06/15 18:55:47;;;;;;;21.50;12.60;;;;;;;21.04;53.85;98930.38;223736;182;136223;-66
2023/06/15 19:00:51;;;;;;;537.50;435.90;;;;;;;20.96;54.07;98931.94;223722;183;144156;-68
2023/06/15 19:05:54;;;;;;;433.40;363.20;;;;;;;20.86;54.62;98943.16;223751;183;138312;-66
2023/06/15 19:10:59;;;;;;;28.50;23.90;;;;;;;20.75;54.55;98946.60;223767;182;137405;-68
2023/06/15 19:16:04;;;;;;;72.50;56.10;;;;;;;20.63;54.83;98945.98;223798;183;144252;-67
2023/06/15 19:21:07;;;;;;;14.10;10.60;;;;;;;20.51;55.15;98948.97;223797;182;138634;-65
2023/06/15 19:26:15;;;;;;;13.30;9.40;;;;;;;20.40;55.29;98956.56;223780;182;139409;-63
2023/06/15 19:31:18;;;;;;;11.90;9.20;;;;;;;20.24;55.80;98963.27;223804;182;144292;-66
2023/06/15 19:36:21;;;;;;;11.30;9.50;;;;;;;20.12;56.35;98972.05;223796;183;138311;-68
2023/06/15 19:41:25;;;;;;;12.10;9.80;;;;;;;20.00;56.64;98966.61;223694;183;136335;-65
2023/06/15 19:50:43;;;;;;;14.00;9.30;;;;;;;19.85;57.44;98970.52;220910;193;666701;-67
2023/06/15 19:55:47;;;;;;;11.80;10.40;;;;;;;19.71;57.86;98972.35;223612;183;136696;-66
2023/06/15 20:00:51;;;;;;;12.50;10.10;;;;;;;19.61;58.04;98972.18;223678;183;144199;-66
2023/06/15 20:06:00;;;;;;;16.10;10.20;;;;;;;19.53;58.41;98974.14;223703;183;138844;-65
2023/06/15 20:11:09;;;;;;;12.30;9.60;;;;;;;19.47;58.76;98975.20;223593;183;137076;-64
2023/06/15 20:16:13;;;;;;;11.30;10.10;;;;;;;19.43;58.98;98979.58;223645;184;143393;-64
2023/06/15 20:21:20;;;;;;;11.70;10.20;;;;;;;19.36;59.46;98978.52;223502;183;139770;-66
2023/06/15 20:26:25;;;;;;;11.60;10.10;;;;;;;19.29;59.65;98981.88;223680;183;137219;-65
2023/06/15 20:31:29;;;;;;;15.50;10.00;;;;;;;19.21;59.82;98982.34;223655;184;144935;-65
2023/06/15 20:36:33;;;;;;;11.40;10.20;;;;;;;19.10;60.26;98978.14;223612;183;138140;-64
2023/06/15 20:41:40;;;;;;;11.50;10.20;;;;;;;19.01;60.66;98975.80;223595;183;136703;-66
2023/06/15 20:46:43;;;;;;;11.70;10.40;;;;;;;18.91;60.71;98975.05;223734;181;145888;-64
2023/06/15 20:51:47;;;;;;;12.10;10.80;;;;;;;18.83;61.02;98973.09;223781;179;138368;-67
2023/06/15 20:56:50;;;;;;;15.00;11.90;;;;;;;18.74;61.37;98971.05;223670;182;137533;-66
2023/06/15 21:01:53;;;;;;;16.00;12.10;;;;;;;18.66;61.82;98970.94;223857;182;145338;-65
2023/06/15 21:06:57;;;;;;;13.70;10.90;;;;;;;18.58;62.20;98968.80;223692;182;138459;-65
2023/06/15 21:12:00;;;;;;;13.80;10.00;;;;;;;18.49;62.51;98964.91;223753;182;137241;-65
2023/06/15 21:17:04;;;;;;;13.60;10.00;;;;;;;18.44;62.78;98962.09;223679;183;147196;-65
2023/06/15 21:22:08;;;;;;;17.40;11.30;;;;;;;18.43;62.90;98952.52;223694;182;138842;-67
2023/06/15 21:27:11;;;;;;;12.10;10.70;;;;;;;18.41;63.13;98952.50;223683;183;137124;-65
2023/06/15 21:32:16;;;;;;;13.70;11.40;;;;;;;18.37;63.20;98949.10;223653;182;145432;-66
2023/06/15 21:37:19;;;;;;;13.10;11.40;;;;;;;18.30;63.30;98946.00;223779;182;138425;-65
2023/06/15 21:42:25;;;;;;;15.00;11.50;;;;;;;18.24;63.65;98948.98;223709;182;137724;-67
2023/06/15 21:47:29;;;;;;;16.40;11.80;;;;;;;18.14;63.90;98940.34;223835;182;146035;-66
2023/06/15 21:52:33;;;;;;;16.70;12.70;;;;;;;18.05;64.19;98938.63;223646;182;138172;-66
2023/06/15 21:57:38;;;;;;;14.80;12.20;;;;;;;17.98;64.53;98942.39;223719;182;137275;-64
2023/06/15 22:02:41;;;;;;;15.10;12.50;;;;;;;17.91;64.70;98942.04;223712;181;145313;-65
2023/06/15 22:07:45;;;;;;;19.00;12.80;;;;;;;17.80;65.11;98947.65;223601;182;139922;-67
2023/06/15 22:12:48;;;;;;;18.00;11.60;;;;;;;17.70;65.36;98944.07;223733;182;137331;-68
2023/06/15 22:17:53;;;;;;;16.20;11.10;;;;;;;17.65;65.61;98940.05;223723;182;145137;-68
2023/06/15 22:22:59;;;;;;;18.80;12.10;;;;;;;17.64;65.87;98941.24;223691;182;138385;-68
2023/06/15 22:28:03;;;;;;;18.20;12.90;;;;;;;17.62;66.01;98932.06;223716;182;137293;-67
2023/06/15 22:33:06;;;;;;;21.00;13.10;;;;;;;17.60;66.07;98931.95;223727;182;145164;-65
2023/06/15 22:38:09;;;;;;;25.10;12.80;;;;;;;17.58;65.98;98935.21;223615;182;138453;-64
2023/06/15 22:43:14;;;;;;;21.80;13.20;;;;;;;17.51;66.12;98932.37;223753;182;137133;-63
2023/06/15 22:48:22;;;;;;;15.40;12.90;;;;;;;17.40;66.29;98931.09;223778;183;146015;-67
2023/06/15 22:53:26;;;;;;;17.60;13.20;;;;;;;17.26;66.52;98927.34;223744;182;138938;-67
2023/06/15 22:58:29;;;;;;;15.40;13.00;;;;;;;17.13;66.94;98933.17;223870;182;137429;-67
2023/06/15 23:03:32;;;;;;;15.00;12.50;;;;;;;17.04;67.09;98928.09;223734;182;145821;-67
2023/06/15 23:08:35;;;;;;;13.90;11.60;;;;;;;16.97;67.34;98922.45;223662;182;138393;-67
2023/06/15 23:13:39;;;;;;;18.60;13.00;;;;;;;16.97;67.46;98922.50;223576;182;137302;-66
2023/06/15 23:18:44;;;;;;;18.50;13.20;;;;;;;16.97;67.67;98918.88;223807;182;145324;-65
2023/06/15 23:23:55;;;;;;;16.70;12.90;;;;;;;16.98;67.57;98911.24;223693;182;139015;-69
2023/06/15 23:28:59;;;;;;;16.40;13.10;;;;;;;16.93;67.67;98913.66;223813;182;136563;-64
2023/06/15 23:34:02;;;;;;;15.20;13.10;;;;;;;16.86;67.89;98911.83;223809;182;145064;-64
2023/06/15 23:39:06;;;;;;;17.50;12.70;;;;;;;16.77;68.03;98911.11;223803;179;138981;-66
2023/06/15 23:44:15;;;;;;;17.50;12.70;;;;;;;16.71;68.23;98908.61;223738;183;138034;-68
2023/06/15 23:49:18;;;;;;;13.00;11.00;;;;;;;16.65;68.45;98905.38;223757;182;145178;-65
2023/06/15 23:54:21;;;;;;;14.40;10.90;;;;;;;16.64;68.73;98910.52;223753;182;139835;-65
2023/06/15 23:59:25;;;;;;;14.50;11.50;;;;;;;16.67;68.77;98906.98;223621;182;137879;-64
